createdAt,value
2017-07-27T00:00:06.844Z,0
2017-07-27T00:01:06.688Z,0
2017-07-27T00:02:06.782Z,0
2017-07-27T00:03:06.992Z,0
2017-07-27T00:04:06.879Z,0
2017-07-27T00:05:07.071Z,0
2017-07-27T00:06:07.066Z,0
2017-07-27T00:07:06.966Z,0
2017-07-27T00:08:06.965Z,0
2017-07-27T00:09:06.747Z,0
2017-07-27T00:10:06.991Z,0
2017-07-27T00:11:06.946Z,0
2017-07-27T00:12:06.938Z,0
2017-07-27T00:13:07.033Z,0
2017-07-27T00:14:06.772Z,0
2017-07-27T00:15:06.922Z,0
2017-07-27T00:16:06.921Z,0
2017-07-27T00:17:06.919Z,0
2017-07-27T00:18:06.904Z,0
2017-07-27T00:19:06.755Z,0
2017-07-27T00:20:06.596Z,0
2017-07-27T00:21:06.901Z,0
2017-07-27T00:22:06.890Z,0
2017-07-27T00:23:06.884Z,0
2017-07-27T00:24:07.088Z,0
2017-07-27T00:25:07.025Z,0
2017-07-27T00:26:06.877Z,0
2017-07-27T00:27:06.868Z,0
2017-07-27T00:28:06.957Z,0
2017-07-27T00:29:06.861Z,0
2017-07-27T00:30:06.949Z,0
2017-07-27T00:31:06.953Z,0
2017-07-27T00:32:06.846Z,0
2017-07-27T00:33:06.529Z,0
2017-07-27T00:34:06.829Z,0
2017-07-27T00:35:06.828Z,0
2017-07-27T00:36:06.609Z,0
2017-07-27T00:37:06.607Z,0
2017-07-27T00:38:06.926Z,0
2017-07-27T00:39:06.653Z,0
2017-07-27T00:40:06.515Z,0
2017-07-27T00:41:06.894Z,0
2017-07-27T00:42:06.484Z,0
2017-07-27T00:43:06.486Z,0
2017-07-27T00:44:06.780Z,0
2017-07-27T00:45:06.774Z,0
2017-07-27T00:46:06.615Z,0
2017-07-27T00:47:06.765Z,0
2017-07-27T00:48:06.757Z,0
2017-07-27T00:49:06.447Z,0
2017-07-27T00:50:06.446Z,0
2017-07-27T00:51:06.742Z,0
2017-07-27T00:52:06.735Z,0
2017-07-27T00:53:06.731Z,0
2017-07-27T00:54:06.824Z,0
2017-07-27T00:55:06.734Z,0
2017-07-27T00:56:06.612Z,0
2017-07-27T00:57:06.726Z,0
2017-07-27T00:58:06.707Z,0
2017-07-27T00:59:06.708Z,0
2017-07-27T01:00:06.705Z,0
2017-07-27T01:01:06.800Z,0
2017-07-27T01:02:06.944Z,0
2017-07-27T01:03:06.692Z,0
2017-07-27T01:04:06.676Z,0
2017-07-27T01:05:06.677Z,0
2017-07-27T01:06:06.675Z,0
2017-07-27T01:07:06.810Z,0
2017-07-27T01:08:06.673Z,0
2017-07-27T01:09:06.645Z,0
2017-07-27T01:10:06.344Z,0
2017-07-27T01:11:06.645Z,0
2017-07-27T01:12:06.453Z,0
2017-07-27T01:13:06.728Z,0
2017-07-27T01:14:06.656Z,0
2017-07-27T01:15:06.624Z,0
2017-07-27T01:16:06.623Z,0
2017-07-27T01:17:06.614Z,0
2017-07-27T01:18:06.614Z,0
2017-07-27T01:19:06.617Z,0
2017-07-27T01:20:06.384Z,0
2017-07-27T01:21:06.287Z,0
2017-07-27T01:22:06.586Z,0
2017-07-27T01:23:06.577Z,0
2017-07-27T01:24:06.794Z,0
2017-07-27T01:25:06.568Z,0
2017-07-27T01:26:06.566Z,0
2017-07-27T01:27:06.685Z,0
2017-07-27T01:28:06.556Z,0
2017-07-27T01:29:06.245Z,0
2017-07-27T01:30:06.543Z,0
2017-07-27T01:31:06.249Z,0
2017-07-27T01:32:06.428Z,0
2017-07-27T01:33:06.532Z,0
2017-07-27T01:34:06.625Z,0
2017-07-27T01:35:06.669Z,0
2017-07-27T01:36:06.211Z,0
2017-07-27T01:37:06.606Z,0
2017-07-27T01:38:05.888Z,0
2017-07-27T01:39:06.184Z,0
2017-07-27T01:40:06.596Z,0
2017-07-27T01:41:06.484Z,0
2017-07-27T01:42:06.484Z,0
2017-07-27T01:43:06.481Z,0
2017-07-27T01:44:06.166Z,0
2017-07-27T01:45:06.266Z,0
2017-07-27T01:46:06.564Z,0
2017-07-27T01:47:06.157Z,0
2017-07-27T01:48:06.353Z,0
2017-07-27T01:49:06.465Z,0
2017-07-27T01:50:06.540Z,0
2017-07-27T01:51:06.139Z,0
2017-07-27T01:52:06.429Z,0
2017-07-27T01:53:06.430Z,0
2017-07-27T01:54:06.113Z,0
2017-07-27T01:55:06.421Z,0
2017-07-27T01:56:06.103Z,0
2017-07-27T01:57:06.503Z,0
2017-07-27T01:58:06.233Z,0
2017-07-27T01:59:05.781Z,0
2017-07-27T02:00:06.088Z,0
2017-07-27T02:01:06.078Z,0
2017-07-27T02:02:06.072Z,0
2017-07-27T02:03:06.169Z,0
2017-07-27T02:04:06.068Z,0
2017-07-27T02:05:06.364Z,0
2017-07-27T02:06:06.362Z,0
2017-07-27T02:07:06.198Z,0
2017-07-27T02:08:06.353Z,0
2017-07-27T02:09:06.344Z,0
2017-07-27T02:10:06.589Z,0
2017-07-27T02:11:06.335Z,0
2017-07-27T02:12:06.021Z,0
2017-07-27T02:13:06.326Z,0
2017-07-27T02:14:06.008Z,0
2017-07-27T02:15:06.466Z,0
2017-07-27T02:16:06.304Z,0
2017-07-27T02:17:06.305Z,0
2017-07-27T02:18:06.336Z,0
2017-07-27T02:19:05.680Z,0
2017-07-27T02:20:06.286Z,0
2017-07-27T02:21:06.382Z,0
2017-07-27T02:22:05.972Z,0
2017-07-27T02:23:06.372Z,0
2017-07-27T02:24:06.363Z,0
2017-07-27T02:25:06.359Z,0
2017-07-27T02:26:06.255Z,0
2017-07-27T02:27:06.247Z,0
2017-07-27T02:28:06.341Z,0
2017-07-27T02:29:06.240Z,0
2017-07-27T02:30:06.336Z,0
2017-07-27T02:31:08.986Z,0
2017-07-27T02:32:05.922Z,0
2017-07-27T02:33:06.381Z,0
2017-07-27T02:34:05.917Z,0
2017-07-27T02:35:06.210Z,0
2017-07-27T02:36:06.055Z,0
2017-07-27T02:37:05.994Z,0
2017-07-27T02:38:05.906Z,0
2017-07-27T02:39:06.286Z,0
2017-07-27T02:40:06.186Z,0
2017-07-27T02:41:06.444Z,0
2017-07-27T02:42:06.277Z,0
2017-07-27T02:43:06.019Z,0
2017-07-27T02:44:06.167Z,0
2017-07-27T02:45:06.174Z,0
2017-07-27T02:46:05.852Z,0
2017-07-27T02:47:06.295Z,0
2017-07-27T02:48:06.234Z,0
2017-07-27T02:49:06.137Z,0
2017-07-27T02:50:05.621Z,0
2017-07-27T02:51:05.614Z,0
2017-07-27T02:52:06.374Z,0
2017-07-27T02:53:06.211Z,0
2017-07-27T02:54:06.212Z,0
2017-07-27T02:55:05.805Z,0
2017-07-27T02:56:06.101Z,0
2017-07-27T02:57:06.091Z,0
2017-07-27T02:58:05.888Z,0
2017-07-27T02:59:05.880Z,0
2017-07-27T03:00:06.179Z,0
2017-07-27T03:01:06.179Z,0
2017-07-27T03:02:05.759Z,0
2017-07-27T03:03:06.068Z,0
2017-07-27T03:04:06.052Z,0
2017-07-27T03:05:06.157Z,0
2017-07-27T03:06:06.158Z,0
2017-07-27T03:07:05.739Z,0
2017-07-27T03:08:06.037Z,0
2017-07-27T03:09:06.030Z,0
2017-07-27T03:10:06.125Z,0
2017-07-27T03:11:05.508Z,0
2017-07-27T03:12:05.704Z,0
2017-07-27T03:13:05.704Z,0
2017-07-27T03:14:06.102Z,0
2017-07-27T03:15:05.960Z,0
2017-07-27T03:16:06.102Z,0
2017-07-27T03:17:05.686Z,0
2017-07-27T03:18:05.984Z,0
2017-07-27T03:19:05.973Z,0
2017-07-27T03:20:05.977Z,0
2017-07-27T03:21:06.072Z,0
2017-07-27T03:22:05.653Z,0
2017-07-27T03:23:05.660Z,0
2017-07-27T03:24:05.950Z,0
2017-07-27T03:25:05.636Z,0
2017-07-27T03:26:06.146Z,0
2017-07-27T03:27:06.033Z,0
2017-07-27T03:28:05.328Z,0
2017-07-27T03:29:06.033Z,0
2017-07-27T03:30:05.463Z,0
2017-07-27T03:31:05.946Z,0
2017-07-27T03:32:05.912Z,0
2017-07-27T03:33:06.005Z,0
2017-07-27T03:34:05.999Z,0
2017-07-27T03:35:05.282Z,0
2017-07-27T03:36:05.890Z,0
2017-07-27T03:37:05.888Z,0
2017-07-27T03:38:06.075Z,0
2017-07-27T03:39:05.877Z,0
2017-07-27T03:40:05.877Z,0
2017-07-27T03:41:05.555Z,0
2017-07-27T03:42:05.556Z,0
2017-07-27T03:43:05.851Z,0
2017-07-27T03:44:05.943Z,0
2017-07-27T03:45:05.539Z,0
2017-07-27T03:46:05.734Z,0
2017-07-27T03:47:05.528Z,0
2017-07-27T03:48:05.523Z,0
2017-07-27T03:49:05.512Z,0
2017-07-27T03:50:05.516Z,0
2017-07-27T03:51:06.008Z,0
2017-07-27T03:52:05.824Z,0
2017-07-27T03:53:05.799Z,0
2017-07-27T03:54:05.800Z,0
2017-07-27T03:55:05.487Z,0
2017-07-27T03:56:05.786Z,0
2017-07-27T03:57:05.479Z,0
2017-07-27T03:58:05.774Z,0
2017-07-27T03:59:05.617Z,0
2017-07-27T04:00:05.864Z,0
2017-07-27T04:01:05.760Z,0
2017-07-27T04:02:05.852Z,0
2017-07-27T04:03:05.438Z,0
2017-07-27T04:04:05.890Z,0
2017-07-27T04:05:05.737Z,0
2017-07-27T04:06:05.830Z,0
2017-07-27T04:07:05.420Z,0
2017-07-27T04:08:05.874Z,0
2017-07-27T04:09:05.817Z,0
2017-07-27T04:10:05.709Z,5
2017-07-27T04:11:05.855Z,5
2017-07-27T04:12:05.701Z,5
2017-07-27T04:13:05.847Z,5
2017-07-27T04:14:05.787Z,5
2017-07-27T04:15:05.477Z,5
2017-07-27T04:16:05.070Z,5
2017-07-27T04:17:05.059Z,5
2017-07-27T04:18:05.670Z,5
2017-07-27T04:19:05.367Z,5
2017-07-27T04:20:05.761Z,5
2017-07-27T04:21:04.754Z,5
2017-07-27T04:22:05.798Z,5
2017-07-27T04:23:05.642Z,10
2017-07-27T04:24:05.644Z,10
2017-07-27T04:25:05.023Z,10
2017-07-27T04:26:05.322Z,10
2017-07-27T04:27:05.824Z,10
2017-07-27T04:28:05.610Z,10
2017-07-27T04:29:05.616Z,10
2017-07-27T04:30:05.621Z,10
2017-07-27T04:31:05.601Z,10
2017-07-27T04:32:05.685Z,10
2017-07-27T04:33:05.282Z,10
2017-07-27T04:34:05.684Z,10
2017-07-27T04:35:05.580Z,10
2017-07-27T04:36:05.268Z,10
2017-07-27T04:37:05.574Z,10
2017-07-27T04:38:05.657Z,10
2017-07-27T04:39:05.561Z,10
2017-07-27T04:40:05.807Z,10
2017-07-27T04:41:05.244Z,10
2017-07-27T04:42:05.633Z,15
2017-07-27T04:43:04.936Z,15
2017-07-27T04:44:05.629Z,15
2017-07-27T04:45:05.530Z,15
2017-07-27T04:46:05.217Z,15
2017-07-27T04:47:05.524Z,15
2017-07-27T04:48:05.353Z,15
2017-07-27T04:49:05.311Z,15
2017-07-27T04:50:05.005Z,15
2017-07-27T04:51:04.884Z,15
2017-07-27T04:52:05.593Z,15
2017-07-27T04:53:05.582Z,15
2017-07-27T04:54:05.584Z,15
2017-07-27T04:55:05.174Z,15
2017-07-27T04:56:05.262Z,15
2017-07-27T04:57:05.614Z,15
2017-07-27T04:58:05.662Z,15
2017-07-27T04:59:05.568Z,15
2017-07-27T05:00:05.452Z,15
2017-07-27T05:01:05.550Z,15
2017-07-27T05:02:05.130Z,15
2017-07-27T05:03:05.683Z,15
2017-07-27T05:04:05.125Z,15
2017-07-27T05:05:05.219Z,15
2017-07-27T05:06:05.211Z,15
2017-07-27T05:07:05.106Z,15
2017-07-27T05:08:05.505Z,15
2017-07-27T05:09:04.892Z,15
2017-07-27T05:10:05.496Z,15
2017-07-27T05:11:04.790Z,20
2017-07-27T05:12:05.180Z,20
2017-07-27T05:13:05.383Z,20
2017-07-27T05:14:05.070Z,20
2017-07-27T05:15:05.025Z,20
2017-07-27T05:16:05.368Z,25
2017-07-27T05:17:05.057Z,25
2017-07-27T05:18:05.054Z,30
2017-07-27T05:19:04.841Z,30
2017-07-27T05:20:05.192Z,30
2017-07-27T05:21:05.186Z,35
2017-07-27T05:22:05.030Z,35
2017-07-27T05:23:05.037Z,35
2017-07-27T05:24:04.837Z,35
2017-07-27T05:25:05.111Z,30
2017-07-27T05:26:05.213Z,30
2017-07-27T05:27:05.332Z,30
2017-07-27T05:28:05.303Z,30
2017-07-27T05:29:05.012Z,30
2017-07-27T05:30:04.995Z,30
2017-07-27T05:31:05.132Z,30
2017-07-27T05:32:05.297Z,30
2017-07-27T05:33:05.077Z,30
2017-07-27T05:34:05.272Z,30
2017-07-27T05:35:05.271Z,30
2017-07-27T05:36:04.444Z,30
2017-07-27T05:37:04.797Z,30
2017-07-27T05:38:05.352Z,30
2017-07-27T05:39:05.245Z,25
2017-07-27T05:40:04.953Z,25
2017-07-27T05:41:04.934Z,20
2017-07-27T05:42:05.077Z,20
2017-07-27T05:43:05.227Z,20
2017-07-27T05:44:04.813Z,20
2017-07-27T05:45:05.017Z,20
2017-07-27T05:46:04.909Z,20
2017-07-27T05:47:05.239Z,20
2017-07-27T05:48:04.898Z,20
2017-07-27T05:49:05.305Z,25
2017-07-27T05:50:04.886Z,25
2017-07-27T05:51:05.187Z,25
2017-07-27T05:52:05.035Z,25
2017-07-27T05:53:04.868Z,25
2017-07-27T05:54:04.662Z,25
2017-07-27T05:55:04.870Z,25
2017-07-27T05:56:05.369Z,25
2017-07-27T05:57:05.008Z,25
2017-07-27T05:58:05.160Z,25
2017-07-27T05:59:04.840Z,20
2017-07-27T06:00:04.857Z,20
2017-07-27T06:01:04.860Z,20
2017-07-27T06:02:04.850Z,20
2017-07-27T06:03:04.841Z,20
2017-07-27T06:04:04.938Z,20
2017-07-27T06:05:04.930Z,20
2017-07-27T06:06:04.825Z,20
2017-07-27T06:07:05.131Z,20
2017-07-27T06:08:05.125Z,20
2017-07-27T06:09:05.116Z,20
2017-07-27T06:10:05.108Z,20
2017-07-27T06:11:05.105Z,20
2017-07-27T06:12:05.249Z,20
2017-07-27T06:13:04.904Z,20
2017-07-27T06:14:04.477Z,25
2017-07-27T06:15:04.774Z,25
2017-07-27T06:16:04.770Z,25
2017-07-27T06:17:05.176Z,25
2017-07-27T06:18:05.071Z,25
2017-07-27T06:19:04.857Z,25
2017-07-27T06:20:05.060Z,20
2017-07-27T06:21:05.054Z,20
2017-07-27T06:22:05.052Z,20
2017-07-27T06:23:05.148Z,20
2017-07-27T06:24:04.739Z,20
2017-07-27T06:25:05.033Z,15
2017-07-27T06:26:05.026Z,15
2017-07-27T06:27:05.028Z,15
2017-07-27T06:28:05.019Z,15
2017-07-27T06:29:05.011Z,15
2017-07-27T06:30:04.496Z,15
2017-07-27T06:31:04.848Z,15
2017-07-27T06:32:05.002Z,15
2017-07-27T06:33:04.683Z,15
2017-07-27T06:34:04.985Z,15
2017-07-27T06:35:04.986Z,20
2017-07-27T06:36:04.672Z,20
2017-07-27T06:37:04.366Z,20
2017-07-27T06:38:05.065Z,20
2017-07-27T06:39:05.113Z,20
2017-07-27T06:40:04.654Z,25
2017-07-27T06:41:04.647Z,25
2017-07-27T06:42:04.952Z,25
2017-07-27T06:43:05.043Z,25
2017-07-27T06:44:05.036Z,25
2017-07-27T06:45:04.931Z,25
2017-07-27T06:46:04.634Z,25
2017-07-27T06:47:05.076Z,25
2017-07-27T06:48:04.448Z,30
2017-07-27T06:49:04.605Z,30
2017-07-27T06:50:04.602Z,30
2017-07-27T06:51:04.902Z,30
2017-07-27T06:52:05.051Z,30
2017-07-27T06:53:04.889Z,30
2017-07-27T06:54:04.680Z,35
2017-07-27T06:55:04.884Z,35
2017-07-27T06:56:04.866Z,35
2017-07-27T06:57:04.873Z,35
2017-07-27T06:58:05.064Z,40
2017-07-27T06:59:04.552Z,40
2017-07-27T07:00:04.804Z,40
2017-07-27T07:01:04.850Z,40
2017-07-27T07:02:04.984Z,40
2017-07-27T07:03:04.847Z,40
2017-07-27T07:04:04.833Z,40
2017-07-27T07:05:05.028Z,40
2017-07-27T07:06:04.518Z,40
2017-07-27T07:07:04.673Z,40
2017-07-27T07:08:04.817Z,40
2017-07-27T07:09:04.810Z,40
2017-07-27T07:10:04.903Z,40
2017-07-27T07:11:04.904Z,40
2017-07-27T07:12:04.996Z,40
2017-07-27T07:13:04.892Z,40
2017-07-27T07:14:04.473Z,35
2017-07-27T07:15:04.780Z,40
2017-07-27T07:16:04.478Z,40
2017-07-27T07:17:04.607Z,35
2017-07-27T07:18:04.862Z,35
2017-07-27T07:19:04.760Z,35
2017-07-27T07:20:04.756Z,35
2017-07-27T07:21:04.550Z,35
2017-07-27T07:22:04.741Z,35
2017-07-27T07:23:04.542Z,40
2017-07-27T07:24:04.740Z,40
2017-07-27T07:25:04.727Z,40
2017-07-27T07:26:04.726Z,40
2017-07-27T07:27:04.417Z,40
2017-07-27T07:28:04.813Z,35
2017-07-27T07:29:04.713Z,35
2017-07-27T07:30:04.806Z,35
2017-07-27T07:31:04.710Z,30
2017-07-27T07:32:04.786Z,30
2017-07-27T07:33:04.686Z,30
2017-07-27T07:34:04.787Z,30
2017-07-27T07:35:04.675Z,30
2017-07-27T07:36:04.672Z,30
2017-07-27T07:37:04.671Z,30
2017-07-27T07:38:04.353Z,35
2017-07-27T07:39:04.908Z,35
2017-07-27T07:40:04.354Z,30
2017-07-27T07:41:04.344Z,35
2017-07-27T07:42:04.657Z,30
2017-07-27T07:43:04.641Z,30
2017-07-27T07:44:04.648Z,30
2017-07-27T07:45:04.325Z,30
2017-07-27T07:46:04.626Z,30
2017-07-27T07:47:04.620Z,30
2017-07-27T07:48:04.313Z,30
2017-07-27T07:49:04.398Z,30
2017-07-27T07:50:04.394Z,30
2017-07-27T07:51:04.744Z,30
2017-07-27T07:52:04.285Z,30
2017-07-27T07:53:04.588Z,25
2017-07-27T07:54:04.381Z,25
2017-07-27T07:55:04.273Z,25
2017-07-27T07:56:04.576Z,20
2017-07-27T07:57:04.261Z,20
2017-07-27T07:58:04.586Z,20
2017-07-27T07:59:04.249Z,25
2017-07-27T08:00:04.555Z,25
2017-07-27T08:01:04.490Z,25
2017-07-27T08:02:04.543Z,30
2017-07-27T08:03:04.333Z,30
2017-07-27T08:04:04.630Z,30
2017-07-27T08:05:04.633Z,30
2017-07-27T08:06:03.908Z,30
2017-07-27T08:07:04.215Z,30
2017-07-27T08:08:04.508Z,30
2017-07-27T08:09:04.665Z,35
2017-07-27T08:10:04.504Z,30
2017-07-27T08:11:04.353Z,30
2017-07-27T08:12:04.500Z,30
2017-07-27T08:13:04.586Z,30
2017-07-27T08:14:04.624Z,35
2017-07-27T08:15:04.170Z,35
2017-07-27T08:16:04.171Z,35
2017-07-27T08:17:04.474Z,30
2017-07-27T08:18:04.466Z,30
2017-07-27T08:19:04.156Z,30
2017-07-27T08:20:04.141Z,30
2017-07-27T08:21:04.135Z,35
2017-07-27T08:22:04.137Z,40
2017-07-27T08:23:04.227Z,45
2017-07-27T08:24:04.233Z,45
2017-07-27T08:25:04.126Z,45
2017-07-27T08:26:04.428Z,40
2017-07-27T08:27:04.418Z,40
2017-07-27T08:28:04.307Z,35
2017-07-27T08:29:04.508Z,35
2017-07-27T08:30:04.099Z,40
2017-07-27T08:31:04.405Z,40
2017-07-27T08:32:04.684Z,40
2017-07-27T08:33:04.181Z,40
2017-07-27T08:34:04.169Z,35
2017-07-27T08:35:04.073Z,35
2017-07-27T08:36:03.759Z,35
2017-07-27T08:37:04.058Z,35
2017-07-27T08:38:04.460Z,35
2017-07-27T08:39:04.046Z,30
2017-07-27T08:40:04.348Z,25
2017-07-27T08:41:04.152Z,25
2017-07-27T08:42:04.033Z,25
2017-07-27T08:43:04.137Z,25
2017-07-27T08:44:04.022Z,25
2017-07-27T08:45:03.812Z,25
2017-07-27T08:46:04.320Z,25
2017-07-27T08:47:04.415Z,25
2017-07-27T08:48:04.017Z,25
2017-07-27T08:49:04.146Z,25
2017-07-27T08:50:04.310Z,25
2017-07-27T08:51:03.994Z,25
2017-07-27T08:52:03.986Z,25
2017-07-27T08:53:04.180Z,25
2017-07-27T08:54:04.381Z,25
2017-07-27T08:55:04.285Z,25
2017-07-27T08:56:04.270Z,25
2017-07-27T08:57:03.960Z,25
2017-07-27T08:58:04.369Z,25
2017-07-27T08:59:04.258Z,25
2017-07-27T09:00:04.259Z,30
2017-07-27T09:01:03.941Z,30
2017-07-27T09:02:04.039Z,25
2017-07-27T09:03:03.929Z,30
2017-07-27T09:04:04.336Z,30
2017-07-27T09:05:04.320Z,30
2017-07-27T09:06:04.219Z,25
2017-07-27T09:07:03.706Z,25
2017-07-27T09:08:04.206Z,25
2017-07-27T09:09:03.595Z,20
2017-07-27T09:10:04.004Z,20
2017-07-27T09:11:04.040Z,20
2017-07-27T09:12:03.880Z,25
2017-07-27T09:13:04.193Z,25
2017-07-27T09:14:04.186Z,25
2017-07-27T09:15:04.271Z,30
2017-07-27T09:16:03.720Z,25
2017-07-27T09:17:04.310Z,25
2017-07-27T09:18:04.413Z,25
2017-07-27T09:19:04.154Z,25
2017-07-27T09:20:03.941Z,30
2017-07-27T09:21:04.087Z,30
2017-07-27T09:22:04.138Z,30
2017-07-27T09:23:04.229Z,25
2017-07-27T09:24:04.127Z,20
2017-07-27T09:25:04.225Z,25
2017-07-27T09:26:04.216Z,25
2017-07-27T09:27:04.259Z,25
2017-07-27T09:28:04.104Z,25
2017-07-27T09:29:03.793Z,25
2017-07-27T09:30:03.785Z,25
2017-07-27T09:31:04.094Z,30
2017-07-27T09:32:04.208Z,25
2017-07-27T09:33:04.076Z,25
2017-07-27T09:34:04.078Z,25
2017-07-27T09:35:03.458Z,25
2017-07-27T09:36:03.908Z,30
2017-07-27T09:37:04.167Z,20
2017-07-27T09:38:04.059Z,25
2017-07-27T09:39:03.433Z,20
2017-07-27T09:40:04.051Z,20
2017-07-27T09:41:04.060Z,25
2017-07-27T09:42:04.036Z,30
2017-07-27T09:43:04.029Z,30
2017-07-27T09:44:04.180Z,25
2017-07-27T09:45:04.027Z,35
2017-07-27T09:46:03.813Z,40
2017-07-27T09:47:04.160Z,45
2017-07-27T09:48:04.111Z,45
2017-07-27T09:49:04.003Z,50
2017-07-27T09:50:04.008Z,55
2017-07-27T09:51:04.000Z,45
2017-07-27T09:52:04.085Z,40
2017-07-27T09:53:03.771Z,35
2017-07-27T09:54:03.975Z,35
2017-07-27T09:55:03.665Z,45
2017-07-27T09:56:03.662Z,55
2017-07-27T09:57:03.657Z,50
2017-07-27T09:58:04.058Z,45
2017-07-27T09:59:04.097Z,35
2017-07-27T10:00:03.949Z,35
2017-07-27T10:01:04.090Z,60
2017-07-27T10:02:03.940Z,65
2017-07-27T10:03:03.934Z,70
2017-07-27T10:04:04.025Z,60
2017-07-27T10:05:03.305Z,55
2017-07-27T10:06:04.030Z,55
2017-07-27T10:07:03.907Z,85
2017-07-27T10:08:03.601Z,100
2017-07-27T10:09:03.901Z,80
2017-07-27T10:10:03.998Z,80
2017-07-27T10:11:03.478Z,105
2017-07-27T10:12:03.885Z,90
2017-07-27T10:13:03.265Z,85
2017-07-27T10:14:03.907Z,75
2017-07-27T10:15:04.019Z,75
2017-07-27T10:16:03.964Z,70
2017-07-27T10:17:03.548Z,75
2017-07-27T10:18:03.547Z,85
2017-07-27T10:19:03.550Z,80
2017-07-27T10:20:03.535Z,80
2017-07-27T10:21:03.535Z,85
2017-07-27T10:22:03.839Z,75
2017-07-27T10:23:03.939Z,75
2017-07-27T10:24:03.833Z,85
2017-07-27T10:25:03.861Z,95
2017-07-27T10:26:03.816Z,100
2017-07-27T10:27:03.914Z,105
2017-07-27T10:28:03.301Z,110
2017-07-27T10:29:03.800Z,85
2017-07-27T10:30:03.494Z,80
2017-07-27T10:31:03.491Z,65
2017-07-27T10:32:03.582Z,60
2017-07-27T10:33:03.470Z,75
2017-07-27T10:34:03.478Z,75
2017-07-27T10:35:03.469Z,80
2017-07-27T10:36:03.564Z,130
2017-07-27T10:37:03.863Z,155
2017-07-27T10:38:03.761Z,165
2017-07-27T10:39:03.445Z,170
2017-07-27T10:40:03.851Z,160
2017-07-27T10:41:03.770Z,155
2017-07-27T10:42:03.429Z,165
2017-07-27T10:43:03.749Z,165
2017-07-27T10:44:04.081Z,160
2017-07-27T10:45:03.728Z,155
2017-07-27T10:46:03.418Z,135
2017-07-27T10:47:03.820Z,105
2017-07-27T10:48:03.406Z,100
2017-07-27T10:49:03.656Z,115
2017-07-27T10:50:03.801Z,120
2017-07-27T10:51:03.392Z,120
2017-07-27T10:52:03.389Z,105
2017-07-27T10:53:03.392Z,105
2017-07-27T10:54:03.788Z,115
2017-07-27T10:55:03.470Z,130
2017-07-27T10:56:03.696Z,125
2017-07-27T10:57:03.670Z,135
2017-07-27T10:58:03.677Z,135
2017-07-27T10:59:03.670Z,125
2017-07-27T11:00:03.776Z,125
2017-07-27T11:01:03.663Z,110
2017-07-27T11:02:03.658Z,130
2017-07-27T11:03:03.651Z,120
2017-07-27T11:04:03.342Z,125
2017-07-27T11:05:03.647Z,130
2017-07-27T11:06:03.637Z,140
2017-07-27T11:07:03.326Z,130
2017-07-27T11:08:03.320Z,140
2017-07-27T11:09:03.629Z,145
2017-07-27T11:10:03.211Z,130
2017-07-27T11:11:03.314Z,110
2017-07-27T11:12:03.411Z,100
2017-07-27T11:13:02.994Z,95
2017-07-27T11:14:03.607Z,100
2017-07-27T11:15:03.713Z,105
2017-07-27T11:16:03.296Z,120
2017-07-27T11:17:03.596Z,135
2017-07-27T11:18:03.290Z,135
2017-07-27T11:19:03.579Z,140
2017-07-27T11:20:03.369Z,140
2017-07-27T11:21:03.267Z,140
2017-07-27T11:22:03.369Z,140
2017-07-27T11:23:03.054Z,145
2017-07-27T11:24:03.562Z,140
2017-07-27T11:25:03.042Z,135
2017-07-27T11:26:03.243Z,135
2017-07-27T11:27:03.550Z,125
2017-07-27T11:28:03.646Z,125
2017-07-27T11:29:03.232Z,105
2017-07-27T11:30:02.924Z,105
2017-07-27T11:31:03.533Z,90
2017-07-27T11:32:03.014Z,75
2017-07-27T11:33:03.621Z,60
2017-07-27T11:34:03.518Z,65
2017-07-27T11:35:03.525Z,80
2017-07-27T11:36:03.522Z,90
2017-07-27T11:37:03.199Z,80
2017-07-27T11:38:03.602Z,95
2017-07-27T11:39:03.616Z,115
2017-07-27T11:40:03.311Z,105
2017-07-27T11:41:03.638Z,115
2017-07-27T11:42:03.485Z,130
2017-07-27T11:43:03.501Z,140
2017-07-27T11:44:03.581Z,150
2017-07-27T11:45:03.263Z,145
2017-07-27T11:46:03.162Z,140
2017-07-27T11:47:03.613Z,140
2017-07-27T11:48:03.467Z,130
2017-07-27T11:49:03.557Z,125
2017-07-27T11:50:03.457Z,120
2017-07-27T11:51:03.246Z,125
2017-07-27T11:52:03.442Z,120
2017-07-27T11:53:02.831Z,110
2017-07-27T11:54:03.443Z,100
2017-07-27T11:55:03.126Z,100
2017-07-27T11:56:03.529Z,100
2017-07-27T11:57:03.521Z,110
2017-07-27T11:58:03.127Z,115
2017-07-27T11:59:03.523Z,120
2017-07-27T12:00:03.104Z,125
2017-07-27T12:01:03.195Z,125
2017-07-27T12:02:03.501Z,125
2017-07-27T12:03:03.513Z,110
2017-07-27T12:04:03.096Z,105
2017-07-27T12:05:03.087Z,105
2017-07-27T12:06:03.493Z,105
2017-07-27T12:07:03.579Z,100
2017-07-27T12:08:03.378Z,115
2017-07-27T12:09:03.372Z,100
2017-07-27T12:10:02.750Z,100
2017-07-27T12:11:02.749Z,90
2017-07-27T12:12:03.563Z,90
2017-07-27T12:13:03.357Z,100
2017-07-27T12:14:03.460Z,110
2017-07-27T12:15:03.039Z,105
2017-07-27T12:16:03.038Z,100
2017-07-27T12:17:03.031Z,105
2017-07-27T12:18:03.021Z,105
2017-07-27T12:19:03.130Z,110
2017-07-27T12:20:03.321Z,115
2017-07-27T12:21:03.320Z,120
2017-07-27T12:22:03.314Z,120
2017-07-27T12:23:03.212Z,110
2017-07-27T12:24:03.101Z,110
2017-07-27T12:25:03.306Z,110
2017-07-27T12:26:03.098Z,105
2017-07-27T12:27:03.297Z,105
2017-07-27T12:28:02.682Z,110
2017-07-27T12:29:03.394Z,125
2017-07-27T12:30:02.981Z,130
2017-07-27T12:31:03.282Z,120
2017-07-27T12:32:02.973Z,100
2017-07-27T12:33:02.967Z,85
2017-07-27T12:34:03.065Z,75
2017-07-27T12:35:03.261Z,65
2017-07-27T12:36:03.260Z,60
2017-07-27T12:37:02.957Z,70
2017-07-27T12:38:02.637Z,85
2017-07-27T12:39:02.740Z,95
2017-07-27T12:40:02.940Z,105
2017-07-27T12:41:02.929Z,120
2017-07-27T12:42:02.926Z,125
2017-07-27T12:43:03.041Z,120
2017-07-27T12:44:02.925Z,115
2017-07-27T12:45:03.326Z,115
2017-07-27T12:46:02.921Z,105
2017-07-27T12:47:03.218Z,100
2017-07-27T12:48:02.909Z,105
2017-07-27T12:49:02.284Z,105
2017-07-27T12:50:02.898Z,75
2017-07-27T12:51:02.991Z,55
2017-07-27T12:52:02.372Z,50
2017-07-27T12:53:03.338Z,65
2017-07-27T12:54:02.263Z,65
2017-07-27T12:55:02.876Z,85
2017-07-27T12:56:02.770Z,85
2017-07-27T12:57:03.174Z,70
2017-07-27T12:58:03.324Z,55
2017-07-27T12:59:03.416Z,50
2017-07-27T13:00:02.548Z,50
2017-07-27T13:01:03.158Z,55
2017-07-27T13:02:03.266Z,65
2017-07-27T13:03:03.152Z,65
2017-07-27T13:04:03.252Z,55
2017-07-27T13:05:03.140Z,50
2017-07-27T13:06:03.144Z,50
2017-07-27T13:07:02.520Z,55
2017-07-27T13:08:03.134Z,50
2017-07-27T13:09:03.230Z,50
2017-07-27T13:10:03.121Z,50
2017-07-27T13:11:02.811Z,50
2017-07-27T13:12:03.110Z,65
2017-07-27T13:13:03.105Z,80
2017-07-27T13:14:02.797Z,95
2017-07-27T13:15:03.099Z,105
2017-07-27T13:16:02.582Z,110
2017-07-27T13:17:03.090Z,105
2017-07-27T13:18:03.189Z,85
2017-07-27T13:19:02.468Z,80
2017-07-27T13:20:02.776Z,75
2017-07-27T13:21:03.082Z,80
2017-07-27T13:22:03.082Z,85
2017-07-27T13:23:03.069Z,85
2017-07-27T13:24:02.601Z,85
2017-07-27T13:25:02.456Z,80
2017-07-27T13:26:02.443Z,80
2017-07-27T13:27:03.050Z,85
2017-07-27T13:28:02.429Z,90
2017-07-27T13:29:03.244Z,95
2017-07-27T13:30:02.728Z,95
2017-07-27T13:31:02.724Z,100
2017-07-27T13:32:02.716Z,100
2017-07-27T13:33:03.125Z,100
2017-07-27T13:34:02.600Z,100
2017-07-27T13:35:03.014Z,100
2017-07-27T13:36:02.394Z,100
2017-07-27T13:37:02.086Z,95
2017-07-27T13:38:03.010Z,90
2017-07-27T13:39:02.696Z,85
2017-07-27T13:40:02.695Z,85
2017-07-27T13:41:02.167Z,80
2017-07-27T13:42:01.863Z,80
2017-07-27T13:43:02.369Z,80
2017-07-27T13:44:02.843Z,85
2017-07-27T13:45:02.363Z,85
2017-07-27T13:46:02.674Z,90
2017-07-27T13:47:02.770Z,90
2017-07-27T13:48:02.663Z,90
2017-07-27T13:49:03.065Z,95
2017-07-27T13:50:02.749Z,95
2017-07-27T13:51:02.746Z,95
2017-07-27T13:52:02.332Z,90
2017-07-27T13:53:02.636Z,90
2017-07-27T13:54:02.455Z,90
2017-07-27T13:55:03.046Z,90
2017-07-27T13:56:02.633Z,90
2017-07-27T13:57:02.731Z,90
2017-07-27T13:58:02.618Z,90
2017-07-27T13:59:02.305Z,90
2017-07-27T14:00:02.608Z,90
2017-07-27T14:01:02.921Z,90
2017-07-27T14:02:02.923Z,90
2017-07-27T14:03:02.903Z,90
2017-07-27T14:04:02.282Z,90
2017-07-27T14:05:02.283Z,90
2017-07-27T14:06:02.070Z,90
2017-07-27T14:07:02.268Z,90
2017-07-27T14:08:03.082Z,90
2017-07-27T14:09:02.588Z,85
2017-07-27T14:10:02.975Z,85
2017-07-27T14:11:02.669Z,90
2017-07-27T14:12:02.257Z,90
2017-07-27T14:13:02.243Z,95
2017-07-27T14:14:02.699Z,95
2017-07-27T14:15:02.236Z,95
2017-07-27T14:16:02.970Z,95
2017-07-27T14:17:02.537Z,95
2017-07-27T14:18:02.855Z,95
2017-07-27T14:19:02.838Z,95
2017-07-27T14:20:02.833Z,90